RYR85MR LOWW-LPPT
Flight info
| Callsign | RYR85MR |
|---|---|
| Flight time | N/A |
| Altitude | 34000 |
| Route | OSPEN DCT ABRUK DCT SETAL DCT DETSA/N0455F350 DCT GEKBA DCT VAMTU DCT KOLON DCT GANGU DCT PADKO DCT DIVKO DCT MAMES DCT BISBA DCT BGR DCT NENDA DCT BCN DCT ANTON DCT XIKEN DCT OSLAP DCT SALAS DCT RAMON DCT NEXAS DCT DISVU DCT ADUXO N975 CJN/N0342F130 N975 PALIO DCT AKOKI DCT GOTOR DCT TLD DCT NATPA DCT MELON DCT CCS DCT ELVAR DCT UPULO |
| Aircraft | A320/M-SDE3FGHIRWY/LB1 |
Departure
| Time | N/A |
|---|---|
| Airport | Vienna International Airport (LOWW) |
Arrival
| Time | 2026-05-07 17:20 |
|---|---|
| Airport | Lisbon Humberto Delgado Airport (LPPT) |
| Time | Latitude | Longitude | Altitude | Speed | Heading |
|---|---|---|---|---|---|
| 2026-05-07 16:45 | 39.57144 | -6.22204 | 33849 ft | 395 kts | 258° |
| 2026-05-07 16:45 | 39.56383 | -6.25647 | 33848 ft | 395 kts | 258° |
| 2026-05-07 16:46 | 39.54878 | -6.32462 | 33844 ft | 395 kts | 257° |
| 2026-05-07 16:46 | 39.53334 | -6.39269 | 33842 ft | 395 kts | 256° |
| 2026-05-07 16:47 | 39.51373 | -6.45956 | 33846 ft | 398 kts | 250° |
| 2026-05-07 16:47 | 39.48970 | -6.52427 | 33851 ft | 399 kts | 249° |
| 2026-05-07 16:48 | 39.46522 | -6.58847 | 33854 ft | 399 kts | 248° |
| 2026-05-07 16:48 | 39.44050 | -6.65217 | 33857 ft | 399 kts | 247° |
| 2026-05-07 16:49 | 39.41520 | -6.71654 | 33858 ft | 400 kts | 247° |
| 2026-05-07 16:49 | 39.39003 | -6.78071 | 33849 ft | 400 kts | 247° |
| 2026-05-07 16:50 | 39.36497 | -6.84449 | 33840 ft | 400 kts | 247° |
| 2026-05-07 16:50 | 39.33972 | -6.90868 | 33855 ft | 401 kts | 247° |
| 2026-05-07 16:51 | 39.31455 | -6.97255 | 33592 ft | 400 kts | 247° |
| 2026-05-07 16:51 | 39.30199 | -7.00435 | 33318 ft | 399 kts | 246° |
| 2026-05-07 16:51 | 39.28939 | -7.03623 | 33052 ft | 398 kts | 246° |
| 2026-05-07 16:51 | 39.27690 | -7.06781 | 32781 ft | 396 kts | 246° |
| 2026-05-07 16:52 | 39.26440 | -7.09935 | 32510 ft | 396 kts | 246° |
| 2026-05-07 16:52 | 39.25189 | -7.13093 | 32242 ft | 397 kts | 246° |
| 2026-05-07 16:52 | 39.23945 | -7.16235 | 31975 ft | 398 kts | 246° |
| 2026-05-07 16:52 | 39.22682 | -7.19414 | 31704 ft | 400 kts | 246° |
| 2026-05-07 16:53 | 39.21412 | -7.22609 | 31418 ft | 402 kts | 246° |
| 2026-05-07 16:53 | 39.20123 | -7.25851 | 30936 ft | 404 kts | 246° |
| 2026-05-07 16:53 | 39.18837 | -7.29075 | 30286 ft | 407 kts | 246° |
| 2026-05-07 16:53 | 39.17566 | -7.32264 | 29768 ft | 403 kts | 245° |
| 2026-05-07 16:54 | 39.16277 | -7.35492 | 29299 ft | 401 kts | 245° |
| 2026-05-07 16:54 | 39.15013 | -7.38651 | 28809 ft | 398 kts | 245° |
| 2026-05-07 16:54 | 39.13763 | -7.41775 | 28320 ft | 394 kts | 245° |
| 2026-05-07 16:54 | 39.12516 | -7.44886 | 27828 ft | 391 kts | 245° |
| 2026-05-07 16:55 | 39.11272 | -7.47991 | 27329 ft | 388 kts | 245° |
| 2026-05-07 16:55 | 39.10050 | -7.51040 | 26838 ft | 384 kts | 245° |
| 2026-05-07 16:55 | 39.08838 | -7.54061 | 26353 ft | 381 kts | 245° |
| 2026-05-07 16:55 | 39.07625 | -7.57077 | 25877 ft | 378 kts | 245° |
| 2026-05-07 16:56 | 39.06427 | -7.60050 | 25386 ft | 375 kts | 245° |
| 2026-05-07 16:56 | 39.05226 | -7.63031 | 24902 ft | 371 kts | 245° |
| 2026-05-07 16:56 | 39.02899 | -7.68968 | 24749 ft | 376 kts | 245° |
| 2026-05-07 16:57 | 39.01752 | -7.71999 | 24765 ft | 377 kts | 245° |
| 2026-05-07 16:57 | 39.00603 | -7.75033 | 24781 ft | 377 kts | 245° |
| 2026-05-07 16:57 | 38.99453 | -7.78060 | 24806 ft | 377 kts | 245° |
| 2026-05-07 16:57 | 38.98303 | -7.81081 | 24829 ft | 378 kts | 245° |
| 2026-05-07 16:58 | 38.97156 | -7.84085 | 24839 ft | 378 kts | 245° |
| 2026-05-07 16:58 | 38.95993 | -7.87128 | 24837 ft | 378 kts | 245° |
| 2026-05-07 16:58 | 38.94850 | -7.90113 | 24740 ft | 369 kts | 245° |
| 2026-05-07 16:58 | 38.93735 | -7.93023 | 24081 ft | 358 kts | 245° |
| 2026-05-07 16:59 | 38.92672 | -7.95793 | 23596 ft | 342 kts | 245° |
| 2026-05-07 16:59 | 38.91642 | -7.98470 | 23067 ft | 329 kts | 244° |
| 2026-05-07 16:59 | 38.90533 | -8.00993 | 22312 ft | 325 kts | 239° |
| 2026-05-07 16:59 | 38.89261 | -8.03374 | 21488 ft | 324 kts | 234° |
| 2026-05-07 17:00 | 38.87864 | -8.05608 | 20681 ft | 322 kts | 232° |
| 2026-05-07 17:00 | 38.86439 | -8.07813 | 19897 ft | 319 kts | 232° |
| 2026-05-07 17:00 | 38.85048 | -8.09962 | 19145 ft | 316 kts | 231° |
| 2026-05-07 17:00 | 38.83655 | -8.12113 | 18362 ft | 314 kts | 231° |
| 2026-05-07 17:01 | 38.82281 | -8.14235 | 17596 ft | 312 kts | 231° |
| 2026-05-07 17:01 | 38.80901 | -8.16365 | 16849 ft | 309 kts | 230° |
| 2026-05-07 17:01 | 38.79536 | -8.18468 | 16107 ft | 307 kts | 230° |
| 2026-05-07 17:01 | 38.78252 | -8.20638 | 15379 ft | 305 kts | 236° |
| 2026-05-07 17:02 | 38.77159 | -8.22936 | 14664 ft | 303 kts | 238° |
| 2026-05-07 17:02 | 38.76112 | -8.25230 | 13945 ft | 301 kts | 238° |
| 2026-05-07 17:02 | 38.75061 | -8.27516 | 13239 ft | 299 kts | 237° |
| 2026-05-07 17:02 | 38.74001 | -8.29787 | 12511 ft | 297 kts | 237° |
| 2026-05-07 17:03 | 38.72945 | -8.32031 | 11820 ft | 294 kts | 236° |
| 2026-05-07 17:03 | 38.71893 | -8.34253 | 11141 ft | 291 kts | 236° |
| 2026-05-07 17:03 | 38.70862 | -8.36419 | 10456 ft | 288 kts | 236° |
| 2026-05-07 17:03 | 38.69822 | -8.38599 | 9772 ft | 285 kts | 236° |
| 2026-05-07 17:04 | 38.68801 | -8.40737 | 9090 ft | 282 kts | 236° |
| 2026-05-07 17:04 | 38.67794 | -8.42841 | 8509 ft | 275 kts | 236° |
| 2026-05-07 17:04 | 38.66822 | -8.44876 | 8194 ft | 259 kts | 236° |
| 2026-05-07 17:04 | 38.65905 | -8.46793 | 7759 ft | 252 kts | 236° |
| 2026-05-07 17:05 | 38.64993 | -8.48693 | 7230 ft | 248 kts | 236° |
| 2026-05-07 17:05 | 38.64103 | -8.50543 | 6973 ft | 247 kts | 236° |
| 2026-05-07 17:05 | 38.63202 | -8.52420 | 6964 ft | 242 kts | 236° |
| 2026-05-07 17:05 | 38.62349 | -8.54204 | 6971 ft | 231 kts | 236° |
| 2026-05-07 17:06 | 38.61508 | -8.55954 | 6968 ft | 230 kts | 236° |
| 2026-05-07 17:06 | 38.60669 | -8.57696 | 6967 ft | 230 kts | 236° |
| 2026-05-07 17:06 | 38.59831 | -8.59433 | 6965 ft | 230 kts | 236° |
| 2026-05-07 17:06 | 38.58986 | -8.61188 | 6971 ft | 230 kts | 236° |
| 2026-05-07 17:07 | 38.58150 | -8.62926 | 6981 ft | 230 kts | 236° |
| 2026-05-07 17:07 | 38.57313 | -8.64661 | 6984 ft | 230 kts | 236° |
| 2026-05-07 17:07 | 38.56646 | -8.66495 | 6966 ft | 234 kts | 256° |
| 2026-05-07 17:07 | 38.56479 | -8.68569 | 6983 ft | 237 kts | 264° |
| 2026-05-07 17:08 | 38.56430 | -8.70695 | 6980 ft | 237 kts | 265° |
| 2026-05-07 17:08 | 38.56369 | -8.72779 | 6988 ft | 237 kts | 264° |
| 2026-05-07 17:08 | 38.56279 | -8.74898 | 6980 ft | 237 kts | 263° |
| 2026-05-07 17:08 | 38.56171 | -8.76990 | 6937 ft | 237 kts | 262° |
| 2026-05-07 17:09 | 38.56047 | -8.79085 | 6818 ft | 235 kts | 262° |
| 2026-05-07 17:09 | 38.55917 | -8.81150 | 6683 ft | 235 kts | 262° |
| 2026-05-07 17:09 | 38.55783 | -8.83218 | 6521 ft | 231 kts | 262° |
| 2026-05-07 17:09 | 38.55652 | -8.85222 | 6378 ft | 222 kts | 261° |
| 2026-05-07 17:10 | 38.55523 | -8.87156 | 6229 ft | 214 kts | 261° |
| 2026-05-07 17:10 | 38.55397 | -8.89015 | 6070 ft | 209 kts | 261° |
| 2026-05-07 17:10 | 38.55268 | -8.90869 | 5698 ft | 209 kts | 262° |
| 2026-05-07 17:10 | 38.55138 | -8.92707 | 5254 ft | 208 kts | 262° |
| 2026-05-07 17:11 | 38.55010 | -8.94544 | 4833 ft | 206 kts | 263° |
| 2026-05-07 17:11 | 38.54886 | -8.96335 | 4433 ft | 204 kts | 264° |
| 2026-05-07 17:11 | 38.54762 | -8.98136 | 4072 ft | 200 kts | 264° |
| 2026-05-07 17:11 | 38.54641 | -8.99907 | 3998 ft | 200 kts | 264° |
| 2026-05-07 17:12 | 38.54519 | -9.01696 | 3996 ft | 201 kts | 264° |
| 2026-05-07 17:12 | 38.54479 | -9.03466 | 3982 ft | 203 kts | 278° |
| 2026-05-07 17:12 | 38.54840 | -9.05218 | 3994 ft | 203 kts | 287° |
| 2026-05-07 17:12 | 38.55291 | -9.06878 | 3974 ft | 192 kts | 287° |
| 2026-05-07 17:13 | 38.55709 | -9.08439 | 3960 ft | 178 kts | 287° |
| 2026-05-07 17:13 | 38.56074 | -9.09861 | 3986 ft | 157 kts | 286° |
| 2026-05-07 17:13 | 38.56387 | -9.11135 | 3994 ft | 146 kts | 285° |
| 2026-05-07 17:13 | 38.56671 | -9.12337 | 3827 ft | 139 kts | 285° |
| 2026-05-07 17:14 | 38.56943 | -9.13523 | 3498 ft | 140 kts | 285° |
| 2026-05-07 17:14 | 38.57211 | -9.14711 | 3243 ft | 138 kts | 286° |
| 2026-05-07 17:14 | 38.57481 | -9.15901 | 3130 ft | 139 kts | 286° |
| 2026-05-07 17:14 | 38.57750 | -9.17086 | 3021 ft | 138 kts | 286° |
| 2026-05-07 17:15 | 38.58036 | -9.18345 | 2999 ft | 157 kts | 286° |
| 2026-05-07 17:15 | 38.58578 | -9.19617 | 3008 ft | 178 kts | 320° |
| 2026-05-07 17:15 | 38.59764 | -9.20182 | 3029 ft | 187 kts | 348° |
| 2026-05-07 17:15 | 38.61064 | -9.20434 | 3011 ft | 187 kts | 349° |
| 2026-05-07 17:16 | 38.62358 | -9.20720 | 3001 ft | 187 kts | 347° |
| 2026-05-07 17:16 | 38.63660 | -9.20958 | 2967 ft | 190 kts | 0° |
| 2026-05-07 17:16 | 38.64964 | -9.20623 | 2758 ft | 191 kts | 15° |
| 2026-05-07 17:16 | 38.66211 | -9.20017 | 2514 ft | 189 kts | 20° |
| 2026-05-07 17:17 | 38.67388 | -9.19366 | 2291 ft | 183 kts | 20° |
| 2026-05-07 17:17 | 38.68556 | -9.18719 | 2037 ft | 179 kts | 20° |
| 2026-05-07 17:17 | 38.69699 | -9.18100 | 1791 ft | 173 kts | 19° |
| 2026-05-07 17:17 | 38.70776 | -9.17521 | 1561 ft | 160 kts | 18° |
| 2026-05-07 17:18 | 38.71784 | -9.16983 | 1353 ft | 148 kts | 18° |
| 2026-05-07 17:18 | 38.72713 | -9.16487 | 1168 ft | 143 kts | 18° |
| 2026-05-07 17:18 | 38.73633 | -9.15997 | 982 ft | 143 kts | 18° |
| 2026-05-07 17:18 | 38.74571 | -9.15495 | 807 ft | 144 kts | 19° |
| 2026-05-07 17:19 | 38.75500 | -9.14999 | 601 ft | 144 kts | 19° |
| 2026-05-07 17:19 | 38.76438 | -9.14495 | 437 ft | 143 kts | 19° |
| 2026-05-07 17:19 | 38.77317 | -9.14034 | 348 ft | 119 kts | 21° |
| 2026-05-07 17:19 | 38.77928 | -9.13703 | 352 ft | 68 kts | 23° |
| 2026-05-07 17:20 | 38.78204 | -9.13546 | 354 ft | 18 kts | 31° |
| 2026-05-07 17:20 | 38.78297 | -9.13454 | 354 ft | 18 kts | 43° |
| 2026-05-07 17:20 | 38.78375 | -9.13336 | 352 ft | 7 kts | 70° |
| 2026-05-07 17:20 | 38.78377 | -9.13325 | 352 ft | 0 kts | 76° |
| 2026-05-07 17:21 | 38.78378 | -9.13313 | 352 ft | 3 kts | 84° |
| 2026-05-07 17:21 | 38.78357 | -9.13270 | 349 ft | 8 kts | 163° |
| 2026-05-07 17:21 | 38.78295 | -9.13283 | 349 ft | 9 kts | 199° |
| 2026-05-07 17:21 | 38.78228 | -9.13314 | 349 ft | 10 kts | 201° |
| 2026-05-07 17:22 | 38.78157 | -9.13351 | 349 ft | 11 kts | 203° |
| 2026-05-07 17:22 | 38.78075 | -9.13396 | 347 ft | 13 kts | 204° |
| 2026-05-07 17:22 | 38.77980 | -9.13449 | 346 ft | 15 kts | 204° |
| 2026-05-07 17:22 | 38.77879 | -9.13503 | 346 ft | 15 kts | 202° |
| 2026-05-07 17:23 | 38.77774 | -9.13557 | 346 ft | 16 kts | 202° |
| 2026-05-07 17:23 | 38.77660 | -9.13596 | 345 ft | 17 kts | 179° |
| 2026-05-07 17:23 | 38.77557 | -9.13575 | 343 ft | 13 kts | 168° |
| 2026-05-07 17:23 | 38.77463 | -9.13550 | 340 ft | 15 kts | 169° |
| 2026-05-07 17:24 | 38.77369 | -9.13522 | 338 ft | 8 kts | 165° |
| 2026-05-07 17:24 | 38.77354 | -9.13517 | 338 ft | 0 kts | 168° |
| 2026-05-07 17:24 | 38.77346 | -9.13515 | 338 ft | 2 kts | 168° |
| 2026-05-07 17:24 | 38.77299 | -9.13502 | 338 ft | 12 kts | 168° |
| 2026-05-07 17:25 | 38.77194 | -9.13474 | 337 ft | 16 kts | 169° |
| 2026-05-07 17:25 | 38.77078 | -9.13444 | 337 ft | 17 kts | 168° |
| 2026-05-07 17:25 | 38.76961 | -9.13413 | 337 ft | 17 kts | 167° |
| 2026-05-07 17:25 | 38.76841 | -9.13379 | 337 ft | 17 kts | 168° |
| 2026-05-07 17:26 | 38.76738 | -9.13391 | 338 ft | 14 kts | 213° |
| 2026-05-07 17:26 | 38.76660 | -9.13470 | 339 ft | 14 kts | 242° |
| 2026-05-07 17:26 | 38.76640 | -9.13592 | 340 ft | 14 kts | 259° |
| 2026-05-07 17:26 | 38.76584 | -9.13663 | 340 ft | 11 kts | 185° |
| 2026-05-07 17:27 | 38.76537 | -9.13698 | 340 ft | 5 kts | 189° |
| 2026-05-07 17:27 | 38.76501 | -9.13693 | 341 ft | 4 kts | 169° |
| 2026-05-07 17:27 | 38.76472 | -9.13685 | 341 ft | 2 kts | 167° |
| 2026-05-07 17:27 | 38.76467 | -9.13683 | 341 ft | 0 kts | 167° |